Terminal Aerodrome Forecast
Issued by NWS

Home | Current Version | Previous Version | Text Only | Print | Product List | Glossary On
Versions: 1 2 3 4 5 6 7 8 9 10 11 12 13 14 15 16 17 18 19 20 21 22 23 24 25
309
FTUS44 KBMX 181737 AAA
TAFTOI
TAF AMD
KTOI 181737Z 1818/1918 08006KT P6SM SCT020
     FM190100 12002KT 5SM BR SCT040
     FM191000 17003KT 4SM BR OVC010
     FM191400 16005KT P6SM SCT025=

USA.gov is the U.S. government's official web portal to all federal, state and local government web resources and services.